createdAt,value
2017-07-05T00:00:47.385Z,19.50
2017-07-05T00:03:13.762Z,19.50
2017-07-05T00:05:40.076Z,19.50
2017-07-05T00:08:07.127Z,19.40
2017-07-05T00:10:34.311Z,19.40
2017-07-05T00:13:00.627Z,19.40
2017-07-05T00:15:26.929Z,19.40
2017-07-05T00:17:54.011Z,19.40
2017-07-05T00:20:20.389Z,19.30
2017-07-05T00:22:46.695Z,19.30
2017-07-05T00:25:12.997Z,19.30
2017-07-05T00:27:39.630Z,19.30
2017-07-05T00:30:05.951Z,19.30
2017-07-05T00:32:32.999Z,19.30
2017-07-05T00:34:59.364Z,19.30
2017-07-05T00:37:25.676Z,19.30
2017-07-05T00:39:51.983Z,19.30
2017-07-05T00:42:19.079Z,19.30
2017-07-05T00:44:45.389Z,19.30
2017-07-05T00:47:11.693Z,19.30
2017-07-05T00:49:38.776Z,19.20
2017-07-05T00:52:05.130Z,19.20
2017-07-05T00:54:31.477Z,19.20
2017-07-05T00:56:57.828Z,19.20
2017-07-05T00:59:24.875Z,19.20
2017-07-05T01:01:51.931Z,19.10
2017-07-05T01:04:19.121Z,19.10
2017-07-05T01:06:45.473Z,19.10
2017-07-05T01:09:11.793Z,19.10
2017-07-05T01:11:38.103Z,19.10
2017-07-05T01:14:04.469Z,19.10
2017-07-05T01:16:30.785Z,19.10
2017-07-05T01:18:57.083Z,19.00
2017-07-05T01:21:23.453Z,19.00
2017-07-05T01:23:49.766Z,19.00
2017-07-05T01:26:16.082Z,19.00
2017-07-05T01:28:42.487Z,19.00
2017-07-05T01:31:09.559Z,18.90
2017-07-05T01:33:35.912Z,18.90
2017-07-05T01:36:02.265Z,18.90
2017-07-05T01:38:28.642Z,18.80
2017-07-05T01:40:55.005Z,18.80
2017-07-05T01:43:22.210Z,18.80
2017-07-05T01:45:49.368Z,18.80
2017-07-05T01:48:16.421Z,18.70
2017-07-05T01:50:42.815Z,18.70
2017-07-05T01:53:09.199Z,18.70
2017-07-05T01:55:35.542Z,18.70
2017-07-05T01:58:01.897Z,18.70
2017-07-05T02:00:28.249Z,18.70
2017-07-05T02:02:54.573Z,18.60
2017-07-05T02:05:20.886Z,18.50
2017-07-05T02:07:47.289Z,18.50
2017-07-05T02:10:13.614Z,18.50
2017-07-05T02:12:39.923Z,18.40
2017-07-05T02:15:07.016Z,18.40
2017-07-05T02:17:33.351Z,18.30
2017-07-05T02:19:59.693Z,18.30
2017-07-05T02:22:26.016Z,18.30
2017-07-05T02:24:52.396Z,18.30
2017-07-05T02:27:19.441Z,18.30
2017-07-05T02:29:46.530Z,18.30
2017-07-05T02:32:12.880Z,18.30
2017-07-05T02:34:39.286Z,18.20
2017-07-05T02:37:05.591Z,18.20
2017-07-05T02:39:31.899Z,18.20
2017-07-05T02:41:58.255Z,18.20
2017-07-05T02:44:24.564Z,18.20
2017-07-05T02:46:51.608Z,18.20
2017-07-05T02:49:17.973Z,18.20
2017-07-05T02:51:44.277Z,18.20
2017-07-05T02:54:11.372Z,18.20
2017-07-05T02:56:37.687Z,18.20
2017-07-05T02:59:03.993Z,18.20
2017-07-05T03:01:31.084Z,18.20
2017-07-05T03:03:57.528Z,18.20
2017-07-05T03:06:23.881Z,18.20
2017-07-05T03:08:50.335Z,18.10
2017-07-05T03:11:17.387Z,18.10
2017-07-05T03:13:44.429Z,18.10
2017-07-05T03:16:11.536Z,18.10
2017-07-05T03:18:37.853Z,18.10
2017-07-05T03:21:04.175Z,18.10
2017-07-05T03:23:30.540Z,18.10
2017-07-05T03:25:56.900Z,18.10
2017-07-05T03:28:23.950Z,18.00
2017-07-05T03:30:51.058Z,18.00
2017-07-05T03:33:17.374Z,18.00
2017-07-05T03:35:43.739Z,18.00
2017-07-05T03:38:10.095Z,18.00
2017-07-05T03:40:37.184Z,18.00
2017-07-05T03:43:03.487Z,18.00
2017-07-05T03:45:29.853Z,18.00
2017-07-05T03:47:56.160Z,18.00
2017-07-05T03:50:22.467Z,18.00
2017-07-05T03:52:49.560Z,17.90
2017-07-05T03:55:15.869Z,17.90
2017-07-05T03:57:42.232Z,17.90
2017-07-05T04:00:08.586Z,17.90
2017-07-05T04:02:34.887Z,17.90
2017-07-05T04:05:01.208Z,17.90
2017-07-05T04:07:27.577Z,17.90
2017-07-05T04:09:53.884Z,17.90
2017-07-05T04:12:20.184Z,17.90
2017-07-05T04:14:46.562Z,17.90
2017-07-05T04:17:12.877Z,17.90
2017-07-05T04:19:39.196Z,17.90
2017-07-05T04:22:05.548Z,17.90
2017-07-05T04:24:31.860Z,17.90
2017-07-05T04:26:58.182Z,17.90
2017-07-05T04:29:24.539Z,17.90
2017-07-05T04:31:50.845Z,17.90
2017-07-05T04:34:17.163Z,17.90
2017-07-05T04:36:43.523Z,18.00
2017-07-05T04:39:09.834Z,18.00
2017-07-05T04:41:36.149Z,18.00
2017-07-05T04:44:02.512Z,18.00
2017-07-05T04:46:28.829Z,18.10
2017-07-05T04:48:55.192Z,18.10
2017-07-05T04:51:21.505Z,18.10
2017-07-05T04:53:47.820Z,18.10
2017-07-05T04:56:14.176Z,18.20
2017-07-05T04:58:40.534Z,18.20
2017-07-05T05:01:07.725Z,18.20
2017-07-05T05:03:34.044Z,18.20
2017-07-05T05:06:00.357Z,18.30
2017-07-05T05:08:27.455Z,18.30
2017-07-05T05:10:53.763Z,18.30
2017-07-05T05:13:20.077Z,18.40
2017-07-05T05:15:46.433Z,18.40
2017-07-05T05:18:12.781Z,18.40
2017-07-05T05:20:39.131Z,18.50
2017-07-05T05:23:05.475Z,18.50
2017-07-05T05:25:32.777Z,18.60
2017-07-05T05:27:59.084Z,18.60
2017-07-05T05:30:25.392Z,18.70
2017-07-05T05:32:52.491Z,18.80
2017-07-05T05:35:18.802Z,18.70
2017-07-05T05:37:45.121Z,18.80
2017-07-05T05:40:11.491Z,18.90
2017-07-05T05:42:37.791Z,18.90
2017-07-05T05:45:04.118Z,19.00
2017-07-05T05:47:30.479Z,19.00
2017-07-05T05:49:56.828Z,19.10
2017-07-05T05:52:23.185Z,19.10
2017-07-05T05:54:50.243Z,19.30
2017-07-05T05:57:17.300Z,19.30
2017-07-05T05:59:43.748Z,19.30
2017-07-05T06:02:10.064Z,19.40
2017-07-05T06:04:36.375Z,19.50
2017-07-05T06:07:03.475Z,19.60
2017-07-05T06:09:29.781Z,19.60
2017-07-05T06:11:56.126Z,19.70
2017-07-05T06:14:22.487Z,19.80
2017-07-05T06:16:48.798Z,19.80
2017-07-05T06:19:15.111Z,19.90
2017-07-05T06:21:41.457Z,19.90
2017-07-05T06:24:07.763Z,20.00
2017-07-05T06:26:34.120Z,20.10
2017-07-05T06:29:00.480Z,20.20
2017-07-05T06:31:26.824Z,20.20
2017-07-05T06:33:53.175Z,20.30
2017-07-05T06:36:20.219Z,20.40
2017-07-05T06:38:47.281Z,20.50
2017-07-05T06:41:13.642Z,20.50
2017-07-05T06:43:39.959Z,20.60
2017-07-05T06:46:06.276Z,20.60
2017-07-05T06:48:32.627Z,20.70
2017-07-05T06:50:58.940Z,20.80
2017-07-05T06:53:25.260Z,20.80
2017-07-05T06:55:52.346Z,21.00
2017-07-05T06:58:18.700Z,20.90
2017-07-05T07:00:45.096Z,21.00
2017-07-05T07:03:11.424Z,21.10
2017-07-05T07:05:37.737Z,21.20
2017-07-05T07:08:04.092Z,21.30
2017-07-05T07:10:30.402Z,21.40
2017-07-05T07:12:56.714Z,21.40
2017-07-05T07:15:23.803Z,21.60
2017-07-05T07:17:50.112Z,21.60
2017-07-05T07:20:16.519Z,21.80
2017-07-05T07:22:43.577Z,21.90
2017-07-05T07:25:09.892Z,21.90
2017-07-05T07:27:36.273Z,22.00
2017-07-05T07:30:02.593Z,22.10
2017-07-05T07:32:28.968Z,22.20
2017-07-05T07:34:55.284Z,22.30
2017-07-05T07:37:21.608Z,22.40
2017-07-05T07:39:47.976Z,22.50
2017-07-05T07:42:14.369Z,22.60
2017-07-05T07:44:40.687Z,22.70
2017-07-05T07:47:07.053Z,22.70
2017-07-05T07:49:33.363Z,22.80
2017-07-05T07:51:59.670Z,23.00
2017-07-05T07:54:26.049Z,23.10
2017-07-05T07:56:52.403Z,23.20
2017-07-05T07:59:19.519Z,23.40
2017-07-05T08:01:45.864Z,23.40
2017-07-05T08:04:12.220Z,23.40
2017-07-05T08:06:39.269Z,23.50
2017-07-05T08:09:06.336Z,23.50
2017-07-05T08:11:32.695Z,23.50
2017-07-05T08:13:59.012Z,23.50
2017-07-05T08:16:25.330Z,23.60
2017-07-05T08:18:51.728Z,23.60
2017-07-05T08:21:18.052Z,23.60
2017-07-05T08:23:44.356Z,23.70
2017-07-05T08:26:10.708Z,23.80
2017-07-05T08:28:37.006Z,23.80
2017-07-05T08:31:03.317Z,23.90
2017-07-05T08:33:29.685Z,23.90
2017-07-05T08:35:55.997Z,23.90
2017-07-05T08:38:22.308Z,24.00
2017-07-05T08:40:48.669Z,24.00
2017-07-05T08:43:14.980Z,24.10
2017-07-05T08:45:41.292Z,24.10
2017-07-05T08:48:07.672Z,24.20
2017-07-05T08:50:33.972Z,24.30
2017-07-05T08:53:00.286Z,24.40
2017-07-05T08:55:26.660Z,24.40
2017-07-05T08:57:52.973Z,24.40
2017-07-05T09:00:19.283Z,24.40
2017-07-05T09:02:45.673Z,24.50
2017-07-05T09:05:11.985Z,24.50
2017-07-05T09:07:38.340Z,24.50
2017-07-05T09:10:05.450Z,24.60
2017-07-05T09:12:31.803Z,24.60
2017-07-05T09:14:58.120Z,24.60
2017-07-05T09:17:24.484Z,24.70
2017-07-05T09:19:51.546Z,24.90
2017-07-05T09:22:18.590Z,24.90
2017-07-05T09:24:45.717Z,24.90
2017-07-05T09:27:12.031Z,24.90
2017-07-05T09:29:38.395Z,24.90
2017-07-05T09:32:05.443Z,24.90
2017-07-05T09:34:32.512Z,25.00
2017-07-05T09:36:58.868Z,25.00
2017-07-05T09:39:25.235Z,25.10
2017-07-05T09:41:51.554Z,25.10
2017-07-05T09:44:17.864Z,25.10
2017-07-05T09:46:44.222Z,25.20
2017-07-05T09:49:10.536Z,25.20
2017-07-05T09:51:36.848Z,25.20
2017-07-05T09:54:03.208Z,25.30
2017-07-05T09:56:29.530Z,25.30
2017-07-05T09:58:55.840Z,25.30
2017-07-05T10:01:22.239Z,25.40
2017-07-05T10:03:49.293Z,25.50
2017-07-05T10:06:15.629Z,25.40
2017-07-05T10:08:41.999Z,25.50
2017-07-05T10:11:08.345Z,25.60
2017-07-05T10:13:34.660Z,25.70
2017-07-05T10:16:01.015Z,25.80
2017-07-05T10:18:27.329Z,25.90
2017-07-05T10:20:53.679Z,26.10
2017-07-05T10:23:20.175Z,26.10
2017-07-05T10:25:46.550Z,26.20
2017-07-05T10:28:13.624Z,26.30
2017-07-05T10:30:39.938Z,26.30
2017-07-05T10:33:07.055Z,26.40
2017-07-05T10:35:33.365Z,26.40
2017-07-05T10:37:59.686Z,26.40
2017-07-05T10:40:26.037Z,26.40
2017-07-05T10:42:52.345Z,26.40
2017-07-05T10:45:18.719Z,26.30
2017-07-05T10:47:45.044Z,26.30
2017-07-05T10:50:11.351Z,26.40
2017-07-05T10:52:37.721Z,26.30
2017-07-05T10:55:04.027Z,26.40
2017-07-05T10:57:30.339Z,26.40
2017-07-05T10:59:56.704Z,26.40
2017-07-05T11:02:23.049Z,26.50
2017-07-05T11:04:50.100Z,26.50
2017-07-05T11:07:17.217Z,26.60
2017-07-05T11:09:43.531Z,26.60
2017-07-05T11:12:09.844Z,26.60
2017-07-05T11:14:36.192Z,26.70
2017-07-05T11:17:02.500Z,26.70
2017-07-05T11:19:28.807Z,26.80
2017-07-05T11:21:55.904Z,27.00
2017-07-05T11:24:22.204Z,27.00
2017-07-05T11:26:48.519Z,27.00
2017-07-05T11:29:15.620Z,27.20
2017-07-05T11:31:41.989Z,27.10
2017-07-05T11:34:09.046Z,27.20
2017-07-05T11:36:36.111Z,27.10
2017-07-05T11:39:02.530Z,27.10
2017-07-05T11:44:02.679Z,27.10
2017-07-05T11:46:28.982Z,27.10
2017-07-05T11:48:56.036Z,27.10
2017-07-05T11:51:23.111Z,27.10
2017-07-05T11:53:49.468Z,27.10
2017-07-05T11:56:15.819Z,27.10
2017-07-05T11:58:42.141Z,27.20
2017-07-05T12:01:08.458Z,27.20
2017-07-05T12:03:34.823Z,27.10
2017-07-05T12:06:01.132Z,27.10
2017-07-05T12:08:27.450Z,27.10
2017-07-05T12:10:53.812Z,27.10
2017-07-05T12:13:20.127Z,27.00
2017-07-05T12:15:46.484Z,27.10
2017-07-05T12:18:13.575Z,27.10
2017-07-05T12:20:39.902Z,27.10
2017-07-05T12:23:06.275Z,27.10
2017-07-05T12:25:32.588Z,27.20
2017-07-05T12:27:58.900Z,27.30
2017-07-05T12:30:25.273Z,27.30
2017-07-05T12:32:51.586Z,27.30
2017-07-05T12:35:17.904Z,27.30
2017-07-05T12:37:44.251Z,27.20
2017-07-05T12:40:10.560Z,27.20
2017-07-05T12:42:36.912Z,27.10
2017-07-05T12:45:03.309Z,27.10
2017-07-05T12:47:29.621Z,27.10
2017-07-05T12:49:55.929Z,27.10
2017-07-05T12:52:22.302Z,27.10
2017-07-05T12:54:48.605Z,27.10
2017-07-05T12:57:15.666Z,27.10
2017-07-05T12:59:42.042Z,27.10
2017-07-05T13:02:08.359Z,27.20
2017-07-05T13:04:34.702Z,27.20
2017-07-05T13:07:01.103Z,27.20
2017-07-05T13:09:27.421Z,27.20
2017-07-05T13:11:53.742Z,27.20
2017-07-05T13:14:20.845Z,27.20
2017-07-05T13:16:47.151Z,27.10
2017-07-05T13:19:13.516Z,27.20
2017-07-05T13:21:39.883Z,27.30
2017-07-05T13:24:06.934Z,27.30
2017-07-05T13:26:33.995Z,27.30
2017-07-05T13:29:00.357Z,27.20
2017-07-05T13:31:26.670Z,27.30
2017-07-05T13:33:52.989Z,27.30
2017-07-05T13:36:19.362Z,27.40
2017-07-05T13:38:45.673Z,27.40
2017-07-05T13:41:11.976Z,27.40
2017-07-05T13:43:38.325Z,27.40
2017-07-05T13:46:04.639Z,27.50
2017-07-05T13:48:30.953Z,27.50
2017-07-05T13:50:57.320Z,27.50
2017-07-05T13:53:23.633Z,27.50
2017-07-05T13:55:49.945Z,27.50
2017-07-05T13:58:17.136Z,27.40
2017-07-05T14:00:43.438Z,27.30
2017-07-05T14:03:09.790Z,27.40
2017-07-05T14:05:36.153Z,27.30
2017-07-05T14:08:02.473Z,27.30
2017-07-05T14:10:28.787Z,27.40
2017-07-05T14:12:55.159Z,27.40
2017-07-05T14:15:21.477Z,27.50
2017-07-05T14:17:47.800Z,27.50
2017-07-05T14:20:14.154Z,27.50
2017-07-05T14:22:40.516Z,27.50
2017-07-05T14:25:06.835Z,27.50
2017-07-05T14:27:33.927Z,27.60
2017-07-05T14:30:00.242Z,27.50
2017-07-05T14:32:26.620Z,27.50
2017-07-05T14:34:52.935Z,27.50
2017-07-05T14:37:19.245Z,27.50
2017-07-05T14:39:45.598Z,27.50
2017-07-05T14:42:11.906Z,27.50
2017-07-05T14:44:38.225Z,27.50
2017-07-05T14:47:04.719Z,27.40
2017-07-05T14:49:31.823Z,27.40
2017-07-05T14:51:58.132Z,27.30
2017-07-05T14:54:24.503Z,27.40
2017-07-05T14:56:50.815Z,27.40
2017-07-05T14:59:17.124Z,27.40
2017-07-05T15:01:43.486Z,27.40
2017-07-05T15:04:09.808Z,27.40
2017-07-05T15:06:36.124Z,27.40
2017-07-05T15:09:02.589Z,27.40
2017-07-05T15:11:28.912Z,27.30
2017-07-05T15:13:55.219Z,27.30
2017-07-05T15:16:21.574Z,27.20
2017-07-05T15:18:47.885Z,27.20
2017-07-05T15:21:14.253Z,27.20
2017-07-05T15:23:40.573Z,27.20
2017-07-05T15:26:06.890Z,27.20
2017-07-05T15:28:33.314Z,27.20
2017-07-05T15:30:59.630Z,27.20
2017-07-05T15:33:25.945Z,27.20
2017-07-05T15:35:52.320Z,27.20
2017-07-05T15:38:18.624Z,27.20
2017-07-05T15:40:44.943Z,27.10
2017-07-05T15:43:11.320Z,27.20
2017-07-05T15:45:37.630Z,27.20
2017-07-05T15:48:03.931Z,27.20
2017-07-05T15:50:30.300Z,27.20
2017-07-05T15:52:56.611Z,27.20
2017-07-05T15:55:22.932Z,27.20
2017-07-05T15:57:49.293Z,27.20
2017-07-05T16:00:15.673Z,27.20
2017-07-05T16:02:42.733Z,27.20
2017-07-05T16:05:09.066Z,27.20
2017-07-05T16:07:35.433Z,27.10
2017-07-05T16:10:01.739Z,27.10
2017-07-05T16:12:28.050Z,27.10
2017-07-05T16:14:55.157Z,27.10
2017-07-05T16:17:21.459Z,27.10
2017-07-05T16:19:47.769Z,27.10
2017-07-05T16:22:14.132Z,27.10
2017-07-05T16:24:40.439Z,27.10
2017-07-05T16:27:06.755Z,27.10
2017-07-05T16:29:33.156Z,27.10
2017-07-05T16:31:59.468Z,27.00
2017-07-05T16:34:25.777Z,27.00
2017-07-05T16:36:52.148Z,27.00
2017-07-05T16:39:18.496Z,27.00
2017-07-05T16:41:45.563Z,26.90
2017-07-05T16:44:11.908Z,26.90
2017-07-05T16:46:38.221Z,26.90
2017-07-05T16:49:04.595Z,26.90
2017-07-05T16:51:30.902Z,26.90
2017-07-05T16:53:57.214Z,26.80
2017-07-05T16:56:23.577Z,26.80
2017-07-05T16:58:49.910Z,26.80
2017-07-05T17:01:16.224Z,26.80
2017-07-05T17:03:42.571Z,26.80
2017-07-05T17:06:08.928Z,26.80
2017-07-05T17:08:35.314Z,26.70
2017-07-05T17:11:01.681Z,26.70
2017-07-05T17:13:28.016Z,26.80
2017-07-05T17:15:54.323Z,26.70
2017-07-05T17:18:20.681Z,26.70
2017-07-05T17:20:47.043Z,26.70
2017-07-05T17:23:13.373Z,26.70
2017-07-05T17:25:40.422Z,26.60
2017-07-05T17:28:07.569Z,26.60
2017-07-05T17:30:34.624Z,26.50
2017-07-05T17:33:01.020Z,26.60
2017-07-05T17:35:27.393Z,26.50
2017-07-05T17:37:53.697Z,26.50
2017-07-05T17:40:20.761Z,26.40
2017-07-05T17:42:47.884Z,26.40
2017-07-05T17:45:14.166Z,26.40
2017-07-05T17:47:40.508Z,26.40
2017-07-05T17:50:06.807Z,26.40
2017-07-05T17:52:33.157Z,26.30
2017-07-05T17:54:59.467Z,26.30
2017-07-05T17:57:25.783Z,26.30
2017-07-05T17:59:52.892Z,26.30
2017-07-05T18:02:19.205Z,26.20
2017-07-05T18:04:45.513Z,26.20
2017-07-05T18:07:11.863Z,26.20
2017-07-05T18:09:38.182Z,26.20
2017-07-05T18:12:04.607Z,26.10
2017-07-05T18:14:31.069Z,26.10
2017-07-05T18:16:57.374Z,26.10
2017-07-05T18:19:23.728Z,26.00
2017-07-05T18:21:50.113Z,26.00
2017-07-05T18:24:17.154Z,26.00
2017-07-05T18:26:44.212Z,25.90
2017-07-05T18:29:11.304Z,25.90
2017-07-05T18:31:37.626Z,25.90
2017-07-05T18:34:03.976Z,25.90
2017-07-05T18:36:30.271Z,25.80
2017-07-05T18:38:56.599Z,25.80
2017-07-05T18:41:22.967Z,25.80
2017-07-05T18:43:49.267Z,25.80
2017-07-05T18:46:15.586Z,25.70
2017-07-05T18:48:41.941Z,25.70
2017-07-05T18:51:08.252Z,25.70
2017-07-05T18:53:34.551Z,25.60
2017-07-05T18:56:00.896Z,25.60
2017-07-05T18:58:27.945Z,25.50
2017-07-05T19:00:55.004Z,25.50
2017-07-05T19:03:21.340Z,25.50
2017-07-05T19:05:47.668Z,25.50
2017-07-05T19:08:14.027Z,25.40
2017-07-05T19:10:40.346Z,25.40
2017-07-05T19:13:06.676Z,25.30
2017-07-05T19:15:33.034Z,25.30
2017-07-05T19:17:59.381Z,25.20
2017-07-05T19:20:25.688Z,25.20
2017-07-05T19:22:52.049Z,25.10
2017-07-05T19:25:18.392Z,25.10
2017-07-05T19:27:45.451Z,24.90
2017-07-05T19:30:12.548Z,24.90
2017-07-05T19:32:38.865Z,24.80
2017-07-05T19:35:05.171Z,24.80
2017-07-05T19:37:31.538Z,24.70
2017-07-05T19:39:57.851Z,24.70
2017-07-05T19:42:24.169Z,24.60
2017-07-05T19:44:50.540Z,24.50
2017-07-05T19:47:16.854Z,24.50
2017-07-05T19:49:43.175Z,24.40
2017-07-05T19:52:09.571Z,24.30
2017-07-05T19:54:36.681Z,24.20
2017-07-05T19:57:02.994Z,24.20
2017-07-05T19:59:29.353Z,24.10
2017-07-05T20:01:55.719Z,24.10
2017-07-05T20:04:22.774Z,24.00
2017-07-05T20:06:49.081Z,23.90
2017-07-05T20:09:15.424Z,23.90
2017-07-05T20:11:42.481Z,23.90
2017-07-05T20:14:08.859Z,23.80
2017-07-05T20:16:35.242Z,23.80
2017-07-05T20:19:02.325Z,23.80
2017-07-05T20:21:28.680Z,23.70
2017-07-05T20:23:55.044Z,23.70
2017-07-05T20:26:22.161Z,23.60
2017-07-05T20:28:48.484Z,23.60
2017-07-05T20:31:15.107Z,23.60
2017-07-05T20:33:41.486Z,23.50
2017-07-05T20:36:08.647Z,23.50
2017-07-05T20:38:35.700Z,23.40
2017-07-05T20:41:02.868Z,23.40
2017-07-05T20:43:29.216Z,23.40
2017-07-05T20:45:55.902Z,23.30
2017-07-05T20:48:23.063Z,23.20
2017-07-05T20:50:50.148Z,23.20
2017-07-05T20:53:16.496Z,23.20
2017-07-05T20:55:42.894Z,23.10
2017-07-05T20:58:09.463Z,23.10
2017-07-05T21:00:36.202Z,23.10
2017-07-05T21:03:02.624Z,23.00
2017-07-05T21:05:28.967Z,23.00
2017-07-05T21:07:55.423Z,22.90
2017-07-05T21:10:21.776Z,22.90
2017-07-05T21:12:49.166Z,22.90
2017-07-05T21:15:15.825Z,22.80
2017-07-05T21:17:42.494Z,22.80
2017-07-05T21:20:08.896Z,22.80
2017-07-05T21:22:35.269Z,22.70
2017-07-05T21:25:02.597Z,22.70
2017-07-05T21:27:29.773Z,22.60
2017-07-05T21:29:57.198Z,22.60
2017-07-05T21:32:23.710Z,22.60
2017-07-05T21:34:50.067Z,22.60
2017-07-05T21:37:16.577Z,22.60
2017-07-05T21:39:43.223Z,22.50
2017-07-05T21:42:09.590Z,22.50
2017-07-05T21:44:35.950Z,22.50
2017-07-05T21:47:02.379Z,22.40
2017-07-05T21:49:29.516Z,22.40
2017-07-05T21:51:56.609Z,22.30
2017-07-05T21:54:22.953Z,22.30
2017-07-05T21:56:49.354Z,22.30
2017-07-05T21:59:15.765Z,22.30
2017-07-05T22:01:42.938Z,22.20
2017-07-05T22:04:09.345Z,22.20
2017-07-05T22:06:36.548Z,22.20
2017-07-05T22:09:03.141Z,22.10
2017-07-05T22:11:30.230Z,22.10
2017-07-05T22:13:56.638Z,22.10
2017-07-05T22:16:23.023Z,22.10
2017-07-05T22:18:49.725Z,22.10
2017-07-05T22:21:16.131Z,22.10
2017-07-05T22:23:42.532Z,22.00
2017-07-05T22:26:08.953Z,22.00
2017-07-05T22:28:35.573Z,21.90
2017-07-05T22:31:01.917Z,21.90
2017-07-05T22:33:28.520Z,21.90
2017-07-05T22:35:54.955Z,21.80
2017-07-05T22:38:21.310Z,21.80
2017-07-05T22:40:47.705Z,21.70
2017-07-05T22:43:14.053Z,21.70
2017-07-05T22:45:40.582Z,21.60
2017-07-05T22:48:07.685Z,21.60
2017-07-05T22:50:35.010Z,21.60
2017-07-05T22:53:01.398Z,21.60
2017-07-05T22:55:28.536Z,21.50
2017-07-05T22:57:55.730Z,21.50
2017-07-05T23:00:22.376Z,21.50
2017-07-05T23:02:48.789Z,21.40
2017-07-05T23:05:15.144Z,21.40
2017-07-05T23:07:41.582Z,21.40
2017-07-05T23:10:07.984Z,21.40
2017-07-05T23:12:34.342Z,21.40
2017-07-05T23:15:00.718Z,21.40
2017-07-05T23:17:28.149Z,21.40
2017-07-05T23:19:55.345Z,21.30
2017-07-05T23:22:21.722Z,21.30
2017-07-05T23:24:48.186Z,21.30
2017-07-05T23:27:15.379Z,21.30
2017-07-05T23:29:41.693Z,21.30
2017-07-05T23:32:08.075Z,21.20
2017-07-05T23:34:34.404Z,21.20
2017-07-05T23:37:00.810Z,21.20
2017-07-05T23:39:27.178Z,21.20
2017-07-05T23:41:53.884Z,21.20
2017-07-05T23:44:21.573Z,21.10
2017-07-05T23:46:47.913Z,21.10
2017-07-05T23:49:14.365Z,21.10
2017-07-05T23:51:41.541Z,21.00
2017-07-05T23:54:07.973Z,21.00
2017-07-05T23:56:34.431Z,21.00
2017-07-05T23:59:00.821Z,21.00
